Time;durP1;ratioP1;P1;durP2;ratioP2;P2;SDS_P1;SDS_P2;PMS_P1;PMS_P2;Temp;Humidity;BMP_temperature;BMP_pressure;BME280_temperature;BME280_humidity;BME280_pressure;Samples;Min_cycle;Max_cycle;Signal;HPM_P1;HPM_P2
2022/06/20 00:01:58;;;;;;;;;7.60;7.60;;;;;26.31;31.04;99174.13;5027930;28;8867;-79
2022/06/20 00:04:29;;;;;;;;;8.40;7.40;;;;;26.28;30.85;99177.03;5039151;28;8852;-77
2022/06/20 00:06:58;;;;;;;;;8.00;8.00;;;;;26.29;31.36;99170.72;5027995;28;8890;-78
2022/06/20 00:09:26;;;;;;;;;8.60;8.00;;;;;26.22;30.87;99165.81;5026892;28;9710;-78
2022/06/20 00:11:55;;;;;;;;;7.80;7.80;;;;;26.19;31.22;99173.19;5025784;28;8859;-79
2022/06/20 00:14:24;;;;;;;;;8.40;8.00;;;;;26.12;30.96;99167.41;4993399;28;8859;-78
2022/06/20 00:16:52;;;;;;;;;4.40;4.40;;;;;26.04;31.10;99167.97;5025785;28;8957;-78
2022/06/20 00:19:21;;;;;;;;;8.40;7.00;;;;;26.07;31.04;99161.56;4978422;28;8868;-77
2022/06/20 00:21:51;;;;;;;;;6.40;6.40;;;;;26.07;31.05;99153.56;5032808;28;8863;-77
2022/06/20 00:24:19;;;;;;;;;8.00;6.40;;;;;26.04;31.21;99159.09;5027243;28;8859;-78
2022/06/20 00:26:48;;;;;;;;;5.20;5.20;;;;;26.02;31.11;99153.00;4992636;28;8836;-77
2022/06/20 00:29:16;;;;;;;;;6.20;6.20;;;;;26.03;30.94;99147.56;5010552;28;8862;-78
2022/06/20 00:31:45;;;;;;;;;6.00;6.00;;;;;25.99;30.72;99146.09;5027289;28;8974;-76
2022/06/20 00:34:14;;;;;;;;;7.00;7.00;;;;;26.02;30.63;99145.00;5030743;28;8847;-78
2022/06/20 00:36:43;;;;;;;;;7.00;7.00;;;;;26.07;30.74;99142.84;5033675;28;8831;-79
2022/06/20 00:39:22;;;;;;;;;8.00;7.00;;;;;26.08;30.81;99144.56;5036612;28;8844;-78
2022/06/20 00:41:51;;;;;;;;;5.60;5.60;;;;;26.13;30.33;99139.75;5030866;28;8859;-78
2022/06/20 00:44:25;;;;;;;;;7.00;7.00;;;;;26.15;30.10;99126.28;5030086;28;8859;-78
2022/06/20 00:47:17;;;;;;;;;7.00;7.00;;;;;26.12;30.09;99121.13;5033011;28;8905;-77
2022/06/20 00:50:13;;;;;;;;;5.40;5.40;;;;;26.17;30.21;99129.69;5031146;28;8866;-76
2022/06/20 00:53:05;;;;;;;;;7.80;7.80;;;;;26.14;30.02;99132.56;5004334;28;8883;-77
2022/06/20 00:55:58;;;;;;;;;9.00;8.00;;;;;26.17;30.25;99125.19;5030590;28;8894;-77
2022/06/20 00:58:51;;;;;;;;;6.80;6.80;;;;;26.17;30.37;99127.00;4949514;28;8868;-77
2022/06/20 01:01:40;;;;;;;;;6.60;6.40;;;;;26.16;30.38;99128.84;5014678;28;8855;-77
2022/06/20 01:04:32;;;;;;;;;5.60;5.60;;;;;26.22;29.86;99127.53;5014154;28;8864;-77
2022/06/20 01:07:25;;;;;;;;;7.00;6.20;;;;;26.23;30.25;99126.56;5001160;28;9611;-77
2022/06/20 01:10:16;;;;;;;;;7.00;5.60;;;;;26.22;29.84;99117.69;5030160;28;8848;-75
2022/06/20 01:13:08;;;;;;;;;6.00;6.00;;;;;26.21;29.78;99118.66;5029640;28;8883;-78
2022/06/20 01:16:08;;;;;;;;;6.20;6.20;;;;;26.22;29.78;99117.69;5029624;28;8862;-77
2022/06/20 01:19:00;;;;;;;;;5.60;5.60;;;;;26.17;29.70;99110.97;5030506;28;8957;-77
2022/06/20 01:21:48;;;;;;;;;5.60;5.60;;;;;26.20;29.58;99105.38;5013628;28;8909;-77
2022/06/20 01:24:47;;;;;;;;;7.00;7.00;;;;;26.19;29.95;99099.19;5035437;28;8892;-77
2022/06/20 01:27:40;;;;;;;;;6.60;6.60;;;;;26.21;30.04;99110.63;5011109;28;8873;-76
2022/06/20 01:30:30;;;;;;;;;7.00;7.00;;;;;26.23;29.38;99107.84;5014734;28;9638;-77
2022/06/20 01:33:21;;;;;;;;;6.00;6.00;;;;;26.23;29.72;99103.34;5030138;28;8940;-77
2022/06/20 01:39:17;;;;;;;;;6.00;6.00;;;;;26.24;29.27;99102.41;5030393;28;8836;-76
2022/06/20 01:42:20;;;;;;;;;6.40;6.40;;;;;26.24;29.60;99101.56;5029929;28;8945;-78
2022/06/20 01:48:19;;;;;;;;;5.40;5.40;;;;;26.25;29.55;99104.09;5030156;28;8868;-78
2022/06/20 01:51:11;;;;;;;;;6.00;6.00;;;;;26.23;29.17;99105.19;5028751;28;8844;-78
2022/06/20 01:54:00;;;;;;;;;6.00;6.00;;;;;26.20;29.35;99102.72;5028309;28;8828;-78
2022/06/20 01:56:51;;;;;;;;;5.40;5.40;;;;;26.17;29.65;99101.13;5035763;28;8869;-78
2022/06/20 01:59:45;;;;;;;;;5.40;5.00;;;;;26.13;29.82;99096.13;5048282;28;8865;-77
2022/06/20 02:02:37;;;;;;;;;5.00;5.00;;;;;26.06;30.00;99083.19;5050140;28;8884;-79
2022/06/20 02:05:29;;;;;;;;;7.00;7.00;;;;;26.04;29.94;99085.13;5048442;28;8861;-80
2022/06/20 02:08:21;;;;;;;;;11.40;10.00;;;;;25.90;31.21;99082.56;5049743;28;8885;-78
2022/06/20 02:11:12;;;;;;;;;8.00;7.40;;;;;25.73;31.14;99081.09;5032735;28;8965;-79
2022/06/20 02:14:05;;;;;;;;;7.80;7.80;;;;;25.71;31.19;99083.03;5034425;28;8842;-77
2022/06/20 02:16:58;;;;;;;;;8.00;8.00;;;;;25.69;32.06;99084.94;5052895;28;8846;-78
2022/06/20 02:19:52;;;;;;;;;6.80;6.20;;;;;25.67;32.01;99087.72;5050457;28;9031;-78
2022/06/20 02:22:41;;;;;;;;;6.40;6.40;;;;;25.64;31.83;99093.28;5034784;28;8870;-78
2022/06/20 02:25:35;;;;;;;;;5.60;5.00;;;;;25.54;31.65;99088.69;5047944;28;8931;-79
2022/06/20 02:28:27;;;;;;;;;8.00;8.00;;;;;25.43;32.03;99089.44;5049381;28;8830;-80
2022/06/20 02:31:15;;;;;;;;;8.60;8.20;;;;;25.26;32.30;99085.28;5047869;28;8973;-79
2022/06/20 02:34:03;;;;;;;;;6.60;6.00;;;;;25.14;32.30;99078.94;5056430;28;8874;-78
2022/06/20 02:36:52;;;;;;;;;6.20;6.00;;;;;24.99;32.80;99070.16;5051010;28;8947;-77
2022/06/20 02:39:41;;;;;;;;;5.60;5.60;;;;;24.84;33.22;99076.50;5048430;28;8861;-78
2022/06/20 02:42:33;;;;;;;;;5.80;5.80;;;;;24.68;33.65;99082.84;5034408;28;8842;-80
2022/06/20 02:45:20;;;;;;;;;6.20;6.20;;;;;24.58;34.04;99080.91;5047537;28;8900;-77
2022/06/20 02:48:10;;;;;;;;;7.00;7.00;;;;;24.47;34.06;99079.75;5006827;28;8843;-80
2022/06/20 02:51:01;;;;;;;;;8.00;8.00;;;;;24.52;34.13;99076.84;5047194;28;8846;-80
2022/06/20 02:53:56;;;;;;;;;7.00;7.00;;;;;24.54;33.92;99074.94;5033566;28;9687;-77
2022/06/20 02:56:47;;;;;;;;;5.20;5.20;;;;;24.57;33.90;99077.38;5033331;28;9049;-79
2022/06/20 02:59:42;;;;;;;;;7.40;7.00;;;;;24.55;34.26;99070.44;5065553;28;9562;-79
2022/06/20 03:02:36;;;;;;;;;7.00;7.00;;;;;24.54;34.17;99069.59;5024587;28;8848;-80
2022/06/20 03:05:24;;;;;;;;;5.80;5.60;;;;;24.48;34.61;99067.28;5062556;28;8856;-77
2022/06/20 03:08:16;;;;;;;;;7.20;7.20;;;;;24.54;34.55;99068.72;5066621;28;8864;-79
2022/06/20 03:11:05;;;;;;;;;6.00;6.00;;;;;24.48;34.84;99068.16;5021736;28;8836;-79
2022/06/20 03:13:53;;;;;;;;;7.20;7.20;;;;;24.47;34.93;99061.09;5070523;28;8879;-77
2022/06/20 03:16:41;;;;;;;;;6.40;6.40;;;;;24.42;35.22;99065.03;5008490;28;8852;-80
2022/06/20 03:19:32;;;;;;;;;6.80;6.00;;;;;24.39;35.48;99063.44;5017849;28;8836;-79
2022/06/20 03:22:22;;;;;;;;;6.60;6.60;;;;;24.42;35.36;99055.22;5022703;28;8871;-77
2022/06/20 03:25:13;;;;;;;;;6.40;6.40;;;;;24.41;35.47;99050.00;5063355;28;9617;-76
2022/06/20 03:28:02;;;;;;;;;7.00;7.00;;;;;24.37;35.55;99052.00;5015102;28;8872;-78
2022/06/20 03:31:11;;;;;;;;;6.00;6.00;;;;;24.36;35.76;99044.13;5060195;28;9057;-79
2022/06/20 03:33:58;;;;;;;;;6.00;6.00;;;;;24.36;35.75;99049.44;5051575;28;8848;-81
2022/06/20 03:36:47;;;;;;;;;5.00;5.00;;;;;24.42;35.67;99043.69;5059753;28;8878;-80
2022/06/20 03:39:36;;;;;;;;;6.00;6.00;;;;;24.44;35.82;99037.34;5057038;28;8844;-79
2022/06/20 03:42:23;;;;;;;;;14.40;14.40;;;;;24.45;35.75;99036.38;5065889;28;8840;-80
2022/06/20 03:45:14;;;;;;;;;8.40;8.40;;;;;24.54;35.57;99026.94;5045234;28;8850;-80
2022/06/20 03:48:06;;;;;;;;;7.00;7.00;;;;;24.58;35.59;99027.59;5030058;28;8856;-80
2022/06/20 03:50:58;;;;;;;;;7.00;7.00;;;;;24.63;35.59;99025.47;5058323;28;8852;-78
2022/06/20 03:53:55;;;;;;;;;7.60;7.00;;;;;24.68;35.53;99010.00;5055002;28;9718;-79
2022/06/20 03:56:49;;;;;;;;;6.00;6.00;;;;;24.63;35.57;99005.00;5064588;28;8914;-80
2022/06/20 03:59:42;;;;;;;;;7.60;6.00;;;;;24.69;35.61;99001.91;5032627;28;8832;-79
2022/06/20 04:02:36;;;;;;;;;6.20;6.20;;;;;24.75;35.91;99007.81;5046952;28;8937;-79
2022/06/20 04:05:30;;;;;;;;;6.80;6.80;;;;;24.80;35.48;99001.19;5064924;28;9633;-79
2022/06/20 04:08:24;;;;;;;;;19.20;18.20;;;;;24.86;35.31;99003.44;5068430;28;8928;-78
2022/06/20 04:11:10;;;;;;;;;8.60;8.00;;;;;24.95;35.51;99003.75;5067038;28;8910;-78
2022/06/20 04:14:03;;;;;;;;;6.40;6.20;;;;;25.07;35.32;99002.94;5070770;28;8875;-78
2022/06/20 04:16:55;;;;;;;;;7.60;7.40;;;;;25.10;35.00;99003.56;5066820;28;8878;-78
2022/06/20 04:19:43;;;;;;;;;6.00;6.00;;;;;25.20;34.84;98997.56;5051783;28;8863;-77
2022/06/20 04:22:34;;;;;;;;;7.00;7.00;;;;;25.27;34.71;98997.09;5068250;28;8855;-78
2022/06/20 04:25:32;;;;;;;;;22.50;22.25;;;;;25.38;34.46;99007.00;5070596;28;9637;-82
2022/06/20 04:28:27;;;;;;;;;7.40;7.40;;;;;25.39;34.82;99008.72;5066864;28;8961;-80
2022/06/20 04:31:21;;;;;;;;;7.40;7.40;;;;;25.43;34.58;99002.19;5068721;28;8859;-80
2022/06/20 04:34:17;;;;;;;;;16.80;15.00;;;;;25.49;34.59;99004.41;5008802;28;8866;-80
2022/06/20 04:37:16;;;;;;;;;7.60;7.00;;;;;25.51;34.63;99006.97;5008530;28;8886;-79
2022/06/20 04:40:12;;;;;;;;;11.40;11.40;;;;;25.57;34.67;99000.34;5007024;28;8896;-79
2022/06/20 04:43:04;;;;;;;;;6.80;6.00;;;;;25.57;34.82;99008.38;5006360;28;8904;-79
2022/06/20 04:46:00;;;;;;;;;10.40;10.00;;;;;25.66;34.91;99011.22;5003871;28;8877;-79
2022/06/20 04:48:49;;;;;;;;;13.60;13.60;;;;;25.75;34.57;99009.72;5007240;28;8883;-79
2022/06/20 04:51:40;;;;;;;;;6.60;6.40;;;;;25.88;34.44;99010.53;5004620;28;8854;-80
2022/06/20 04:54:29;;;;;;;;;6.00;6.00;;;;;26.13;34.09;99010.63;5007190;28;8873;-77
2022/06/20 04:57:17;;;;;;;;;9.40;8.20;;;;;26.40;34.02;99011.22;4992070;28;8851;-76
2022/06/20 05:00:15;;;;;;;;;9.00;8.20;;;;;26.58;33.50;99008.16;4965934;28;8971;-80
2022/06/20 05:03:05;;;;;;;;;6.80;6.80;;;;;26.67;33.75;99018.16;4979707;28;8977;-80
2022/06/20 05:05:56;;;;;;;;;9.00;9.00;;;;;26.82;33.40;99017.03;5050374;28;8860;-79
2022/06/20 05:08:50;;;;;;;;;7.20;7.20;;;;;26.99;33.32;99023.75;5034874;28;8970;-79
2022/06/20 05:11:43;;;;;;;;;7.00;7.00;;;;;27.16;32.90;99026.94;5063399;28;8940;-79
2022/06/20 05:14:38;;;;;;;;;10.40;10.40;;;;;27.31;32.91;99027.59;5062917;28;8884;-79
2022/06/20 05:17:30;;;;;;;;;9.40;9.40;;;;;27.39;32.53;99038.53;5045816;28;8856;-79
2022/06/20 05:20:23;;;;;;;;;11.40;11.00;;;;;27.38;33.60;99040.38;5071361;28;8954;-77
2022/06/20 05:23:16;;;;;;;;;10.80;10.80;;;;;27.47;33.41;99037.94;5073900;28;8938;-79
2022/06/20 05:26:07;;;;;;;;;15.40;14.00;;;;;27.50;33.48;99037.72;5064363;28;8864;-82
2022/06/20 05:28:59;;;;;;;;;10.60;10.60;;;;;27.73;33.18;99042.13;5070716;28;8852;-81
2022/06/20 05:31:52;;;;;;;;;7.40;7.40;;;;;27.92;32.86;99046.88;5070400;28;8852;-81
2022/06/20 05:34:45;;;;;;;;;9.60;9.60;;;;;28.01;32.58;99037.22;5029164;28;8867;-77
2022/06/20 05:37:26;;;;;;;;;9.00;8.40;;;;;28.20;32.20;99041.94;5069461;28;8856;-80
2022/06/20 05:39:59;;;;;;;;;10.80;10.00;;;;;28.26;31.81;99046.81;5073527;28;8921;-77
2022/06/20 05:42:27;;;;;;;;;9.00;8.00;;;;;28.39;31.76;99035.91;5053934;28;8858;-76
2022/06/20 05:44:58;;;;;;;;;9.80;9.80;;;;;28.53;31.56;99050.91;5070440;28;9590;-76
2022/06/20 05:47:30;;;;;;;;;8.00;8.00;;;;;28.65;31.14;99044.50;5068829;28;8856;-80
2022/06/20 05:50:06;;;;;;;;;10.80;10.80;;;;;28.67;31.32;99047.91;5060719;28;8858;-79
2022/06/20 05:52:35;;;;;;;;;8.60;8.60;;;;;28.82;31.34;99052.97;5065741;28;8952;-78
2022/06/20 05:55:12;;;;;;;;;8.20;8.20;;;;;28.85;30.92;99050.91;5013199;28;9036;-76
2022/06/20 05:57:43;;;;;;;;;9.20;9.20;;;;;28.89;31.16;99041.59;5001387;28;8852;-78
2022/06/20 06:00:18;;;;;;;;;11.20;11.20;;;;;28.96;31.32;99044.59;5039147;28;8846;-78
2022/06/20 06:02:52;;;;;;;;;7.20;7.20;;;;;29.09;30.80;99056.03;5049608;28;8996;-77
2022/06/20 06:05:27;;;;;;;;;8.00;8.00;;;;;29.28;30.64;99052.63;4978684;28;8904;-78
2022/06/20 06:08:02;;;;;;;;;10.00;10.00;;;;;29.33;30.77;99065.66;5021696;28;8854;-81
2022/06/20 06:10:39;;;;;;;;;10.80;10.80;;;;;29.22;30.94;99060.34;5046199;28;9572;-78
2022/06/20 06:13:20;;;;;;;;;8.00;8.00;;;;;29.35;30.69;99058.31;5060295;28;9557;-79
2022/06/20 06:18:53;;;;;;;;;5.80;5.80;;;;;29.64;31.15;99054.91;5048315;28;8858;-78
2022/06/20 06:21:22;;;;;;;;;8.40;8.40;;;;;29.58;30.88;99047.41;5048420;28;8847;-75
2022/06/20 06:23:51;;;;;;;;;7.00;7.00;;;;;29.65;30.70;99048.56;5033075;28;8867;-71
2022/06/20 06:26:20;;;;;;;;;7.60;7.60;;;;;29.73;30.95;99054.13;4989077;28;8893;-72
2022/06/20 06:28:51;;;;;;;;;8.00;8.00;;;;;29.74;30.87;99043.25;5059832;28;8985;-69
2022/06/20 06:31:26;;;;;;;;;7.60;7.60;;;;;29.86;31.16;99051.22;5064335;28;8937;-81
2022/06/20 06:34:01;;;;;;;;;7.00;7.00;;;;;29.92;30.41;99048.84;5068427;28;8871;-74
2022/06/20 06:36:36;;;;;;;;;8.80;7.20;;;;;30.00;30.72;99049.97;5059096;28;8856;-76
2022/06/20 06:39:11;;;;;;;;;8.40;7.40;;;;;30.07;30.27;99048.44;5049705;28;8852;-77
2022/06/20 06:41:46;;;;;;;;;7.60;7.60;;;;;30.09;31.00;99054.53;5064018;28;8982;-72
2022/06/20 06:44:18;;;;;;;;;8.80;7.20;;;;;30.16;30.03;99060.25;5016524;28;8872;-75
2022/06/20 06:46:53;;;;;;;;;6.80;6.80;;;;;30.17;30.44;99057.41;5059311;28;8836;-74
2022/06/20 06:49:31;;;;;;;;;9.60;8.60;;;;;30.22;29.98;99057.81;5028507;28;8836;-74
2022/06/20 06:52:07;;;;;;;;;8.00;8.00;;;;;30.25;30.21;99051.34;5027345;28;8974;-76
2022/06/20 06:54:56;;;;;;;;;8.80;7.80;;;;;30.36;30.64;99045.88;5050563;28;8855;-76
2022/06/20 06:57:32;;;;;;;;;9.00;9.00;;;;;30.40;29.84;99039.22;5026385;28;8860;-75
2022/06/20 07:00:22;;;;;;;;;8.60;7.80;;;;;30.49;29.19;99045.56;5059459;28;8852;-72
2022/06/20 07:03:09;;;;;;;;;7.60;7.60;;;;;30.50;29.75;99044.59;5070224;28;8836;-77
2022/06/20 07:05:42;;;;;;;;;8.00;8.00;;;;;30.54;29.52;99043.31;5015648;28;8841;-76
2022/06/20 07:08:14;;;;;;;;;6.80;6.80;;;;;30.59;29.61;99037.53;5032670;28;8939;-76
2022/06/20 07:10:49;;;;;;;;;8.40;8.40;;;;;30.65;29.36;99051.25;5064164;28;9558;-75
2022/06/20 07:13:25;;;;;;;;;6.20;4.80;;;;;30.71;29.36;99053.38;5017665;28;8864;-74
2022/06/20 07:15:59;;;;;;;;;9.40;9.20;;;;;30.58;29.00;99050.13;5050196;28;8859;-78
2022/06/20 07:18:39;;;;;;;;;9.00;9.00;;;;;30.49;29.21;99054.53;5038632;28;8837;-77
2022/06/20 07:21:13;;;;;;;;;9.60;8.40;;;;;30.58;29.13;99049.28;5067611;28;8845;-74
2022/06/20 07:23:49;;;;;;;;;12.20;12.20;;;;;30.70;29.18;99045.47;4975847;28;8868;-74
2022/06/20 07:26:21;;;;;;;;;8.00;8.00;;;;;30.86;29.42;99047.56;5064431;28;8844;-75
2022/06/20 07:28:56;;;;;;;;;8.80;8.80;;;;;30.97;28.67;99047.44;5068442;28;8879;-77
2022/06/20 07:31:31;;;;;;;;;7.80;7.00;;;;;31.12;29.37;99041.63;5068548;28;8864;-76
2022/06/20 07:34:06;;;;;;;;;11.25;11.25;;;;;30.94;28.95;99039.66;5069087;28;8848;-76
2022/06/20 07:36:42;;;;;;;;;9.00;8.60;;;;;30.51;29.25;99033.69;5055696;28;8869;-76
2022/06/20 07:39:19;;;;;;;;;10.20;9.40;;;;;30.65;29.61;99039.66;5022594;28;8948;-76
2022/06/20 07:41:54;;;;;;;;;8.60;8.60;;;;;30.83;29.08;99026.31;5017947;28;8848;-76
2022/06/20 07:44:27;;;;;;;;;8.00;8.00;;;;;30.98;28.76;99038.38;5070645;28;8848;-77
2022/06/20 07:47:03;;;;;;;;;9.00;8.80;;;;;31.13;28.62;99032.53;5071960;28;8840;-76
2022/06/20 07:49:37;;;;;;;;;8.80;8.80;;;;;31.20;28.40;99031.81;5052803;28;8867;-76
2022/06/20 07:52:12;;;;;;;;;8.20;8.20;;;;;31.26;28.82;99022.28;5071253;28;8875;-76
2022/06/20 07:54:45;;;;;;;;;10.40;9.40;;;;;31.40;29.41;99024.53;5070455;28;8844;-75
2022/06/20 07:57:21;;;;;;;;;9.75;9.75;;;;;31.52;28.48;99025.22;5064201;28;9657;-77
2022/06/20 08:00:01;;;;;;;;;7.40;7.40;;;;;31.60;28.79;99028.00;5070380;28;8859;-77
2022/06/20 08:02:35;;;;;;;;;10.00;10.00;;;;;31.50;27.91;99015.59;5034141;28;8852;-76
2022/06/20 08:05:07;;;;;;;;;9.60;9.60;;;;;31.43;28.15;99023.38;5035042;28;8873;-77
2022/06/20 08:07:42;;;;;;;;;10.00;10.00;;;;;31.55;27.74;99022.25;5038705;28;8948;-75
2022/06/20 08:10:18;;;;;;;;;11.00;10.00;;;;;31.45;27.51;99008.75;5039992;28;8867;-74
2022/06/20 08:13:06;;;;;;;;;8.60;7.00;;;;;31.65;27.65;99014.94;5069940;28;9601;-75
2022/06/20 08:15:41;;;;;;;;;8.80;8.80;;;;;31.77;28.27;99020.16;5065089;28;8855;-77
2022/06/20 08:18:12;;;;;;;;;6.20;6.20;;;;;31.88;27.28;99024.50;5037070;28;8850;-75
2022/06/20 08:20:48;;;;;;;;;8.20;8.20;;;;;32.01;27.12;99023.13;5007426;28;9015;-74
2022/06/20 08:23:22;;;;;;;;;11.80;10.80;;;;;31.99;26.92;99014.34;5008067;28;8846;-75
2022/06/20 08:25:56;;;;;;;;;7.80;7.80;;;;;32.05;25.78;99013.78;4975400;28;8874;-76
2022/06/20 08:28:36;;;;;;;;;7.80;7.80;;;;;31.81;25.30;99025.06;4987905;28;8882;-74
2022/06/20 08:31:13;;;;;;;;;8.40;8.00;;;;;31.93;25.42;99028.44;5007767;28;8878;-75
2022/06/20 08:33:49;;;;;;;;;9.00;9.00;;;;;32.05;25.82;99029.13;5008489;28;8851;-75
2022/06/20 08:36:23;;;;;;;;;6.80;6.80;;;;;32.07;25.60;99023.56;4983677;28;8968;-75
2022/06/20 08:39:03;;;;;;;;;9.60;9.00;;;;;32.15;25.19;99021.78;5008437;28;8870;-75
2022/06/20 08:42:06;;;;;;;;;7.00;7.00;;;;;32.23;25.20;99030.00;5007516;28;8871;-75
2022/06/20 08:45:10;;;;;;;;;9.80;9.00;;;;;32.33;25.03;99026.38;5002325;28;9086;-75
2022/06/20 08:48:18;;;;;;;;;12.00;11.75;;;;;31.99;25.66;99017.03;4977093;28;8952;-73
2022/06/20 08:51:20;;;;;;;;;8.60;7.60;;;;;32.15;25.26;99019.09;4959910;28;8877;-73
2022/06/20 08:54:30;;;;;;;;;10.00;9.00;;;;;32.01;25.81;99012.34;4919612;29;8967;-74
2022/06/20 08:57:05;;;;;;;;;8.60;8.60;;;;;32.17;25.72;99017.09;4889870;29;8959;-73
2022/06/20 09:00:03;;;;;;;;;9.80;9.80;;;;;32.22;25.55;99019.34;4895818;29;8927;-75
2022/06/20 09:02:54;;;;;;;;;7.80;7.80;;;;;32.32;26.08;99009.31;4890116;29;8892;-75
2022/06/20 09:05:49;;;;;;;;;8.00;8.00;;;;;32.41;26.84;99010.25;4911098;29;10297;-74
2022/06/20 09:08:37;;;;;;;;;10.60;10.60;;;;;32.53;26.46;99008.16;4896541;29;9648;-76
2022/06/20 09:11:24;;;;;;;;;8.80;8.80;;;;;32.54;25.68;99005.31;4911316;29;8896;-75
2022/06/20 09:14:20;;;;;;;;;11.00;10.40;;;;;32.44;25.90;99001.88;4912140;29;8888;-75
2022/06/20 09:17:04;;;;;;;;;13.60;12.40;;;;;31.90;26.17;99001.75;4895007;29;8889;-76
2022/06/20 09:20:03;;;;;;;;;13.60;13.60;;;;;31.09;27.51;99005.03;4892447;29;8871;-76
2022/06/20 09:22:54;;;;;;;;;7.40;7.40;;;;;31.54;27.08;98998.97;4837167;29;8891;-76
2022/06/20 09:25:33;;;;;;;;;9.60;9.60;;;;;31.50;26.24;98991.34;4820962;29;8898;-77
2022/06/20 09:28:21;;;;;;;;;8.40;8.40;;;;;31.70;26.36;98992.06;4818980;29;8901;-76
2022/06/20 09:31:02;;;;;;;;;8.20;8.20;;;;;31.33;26.73;98988.38;4877801;29;8990;-78
2022/06/20 09:33:45;;;;;;;;;10.60;10.60;;;;;31.47;26.35;98990.66;4945408;28;8894;-76
2022/06/20 09:36:54;;;;;;;;;9.60;9.60;;;;;31.48;25.52;98978.84;4944313;28;9577;-76
2022/06/20 09:39:33;;;;;;;;;7.60;7.60;;;;;31.34;26.14;98979.28;4936380;28;8934;-77
2022/06/20 09:42:11;;;;;;;;;9.80;9.80;;;;;31.57;26.78;98974.41;4948985;28;9699;-76
2022/06/20 09:44:50;;;;;;;;;10.60;9.80;;;;;31.59;26.98;98974.25;4948635;28;8921;-78
2022/06/20 09:47:32;;;;;;;;;10.80;10.20;;;;;31.78;26.86;98970.63;4948804;28;9742;-77
2022/06/20 09:50:13;;;;;;;;;11.40;11.40;;;;;31.84;26.90;98970.03;4947858;28;8892;-80
2022/06/20 09:53:03;;;;;;;;;8.40;8.40;;;;;32.08;27.50;98974.88;4929150;28;8928;-80
2022/06/20 09:55:40;;;;;;;;;9.00;9.00;;;;;32.00;26.09;98970.19;4953932;28;8874;-80
2022/06/20 09:58:18;;;;;;;;;9.40;8.80;;;;;32.13;27.03;98971.69;4957050;28;8980;-80
2022/06/20 10:00:55;;;;;;;;;10.80;10.00;;;;;32.17;25.93;98967.69;5010864;28;8886;-83
2022/06/20 10:06:48;;;;;;;;;9.60;9.60;;;;;31.66;26.44;98970.84;5126448;27;13382;-79
2022/06/20 10:09:23;;;;;;;;;10.00;10.00;;;;;31.77;27.39;98963.53;5107694;28;8841;-80
2022/06/20 10:11:59;;;;;;;;;12.80;11.20;;;;;31.46;26.71;98955.72;5109889;28;8925;-77
2022/06/20 10:14:36;;;;;;;;;9.20;9.20;;;;;31.79;27.06;98956.13;5106322;28;8867;-78
2022/06/20 10:17:17;;;;;;;;;9.80;9.80;;;;;32.01;26.28;98958.41;5106358;28;8867;-79
2022/06/20 10:19:52;;;;;;;;;9.80;9.80;;;;;32.12;26.51;98954.66;5102834;28;8873;-78
2022/06/20 10:22:31;;;;;;;;;7.00;7.00;;;;;31.95;25.68;98953.63;5082587;28;8904;-81
2022/06/20 10:25:24;;;;;;;;;8.80;8.80;;;;;32.19;25.42;98953.06;5104887;28;9605;-77
2022/06/20 10:28:14;;;;;;;;;8.20;8.20;;;;;32.24;25.85;98952.59;5089913;28;8860;-78
2022/06/20 10:30:48;;;;;;;;;8.20;8.20;;;;;32.29;25.28;98939.50;5089572;28;8963;-78
2022/06/20 10:33:33;;;;;;;;;8.40;8.20;;;;;32.08;26.51;98936.22;5103682;28;9177;-78
2022/06/20 10:36:21;;;;;;;;;14.40;10.40;;;;;32.31;26.20;98928.50;5107543;28;8943;-82
2022/06/20 10:39:11;;;;;;;;;7.80;7.80;;;;;32.48;26.84;98924.09;5105537;28;9014;-80
2022/06/20 10:41:55;;;;;;;;;9.20;9.20;;;;;32.75;26.66;98931.28;5043526;28;8863;-80
2022/06/20 10:44:32;;;;;;;;;10.40;10.40;;;;;32.96;25.18;98925.50;5012717;28;8899;-78
2022/06/20 10:47:08;;;;;;;;;10.80;10.80;;;;;32.86;25.28;98924.78;5042194;28;8871;-78
2022/06/20 10:49:54;;;;;;;;;13.25;12.50;;;;;32.87;24.81;98921.88;5010662;28;8970;-79
2022/06/20 10:52:43;;;;;;;;;10.40;10.40;;;;;32.54;25.04;98928.91;5009007;28;8941;-79
2022/06/20 10:55:25;;;;;;;;;11.00;10.00;;;;;32.80;25.42;98908.19;5026908;28;8931;-80
2022/06/20 10:58:07;;;;;;;;;10.20;9.40;;;;;32.93;25.46;98915.88;5004110;28;8870;-79
2022/06/20 11:00:42;;;;;;;;;9.00;9.00;;;;;32.99;25.03;98917.91;5035435;28;8893;-80
2022/06/20 11:03:31;;;;;;;;;13.00;12.75;;;;;33.16;24.89;98915.34;5020138;28;8870;-80
2022/06/20 11:06:12;;;;;;;;;10.50;10.50;;;;;32.87;25.44;98913.78;4992894;28;8904;-78
2022/06/20 11:08:52;;;;;;;;;11.25;9.25;;;;;32.99;24.64;98915.22;5022688;28;8881;-79
2022/06/20 11:11:37;;;;;;;;;8.20;8.20;;;;;33.30;24.88;98917.41;5020780;28;8960;-77
2022/06/20 11:14:17;;;;;;;;;7.80;7.80;;;;;33.63;23.80;98914.84;5021962;28;8854;-80
2022/06/20 11:16:52;;;;;;;;;8.80;8.40;;;;;33.99;23.97;98909.22;4998890;28;8874;-78
2022/06/20 11:19:31;;;;;;;;;9.20;9.20;;;;;34.34;24.30;98901.81;5022704;28;8899;-79
2022/06/20 11:22:13;;;;;;;;;9.60;9.60;;;;;34.28;23.22;98906.06;5025981;28;8877;-79
2022/06/20 11:24:53;;;;;;;;;9.40;9.40;;;;;33.59;24.37;98913.47;5031614;28;8874;-77
2022/06/20 11:27:49;;;;;;;;;9.60;9.60;;;;;33.88;23.47;98904.97;5018121;28;8857;-78
2022/06/20 11:30:23;;;;;;;;;11.00;11.00;;;;;33.87;23.66;98911.38;4943056;28;8888;-79
2022/06/20 11:33:08;;;;;;;;;12.75;12.75;;;;;34.29;23.81;98902.34;4934782;28;8985;-77
2022/06/20 11:35:49;;;;;;;;;9.00;8.00;;;;;34.56;22.14;98895.72;4950751;28;8850;-81
2022/06/20 11:38:51;;;;;;;;;7.40;7.40;;;;;34.63;23.82;98898.56;4910596;29;8865;-82
2022/06/20 11:41:27;;;;;;;;;9.60;9.60;;;;;34.68;23.38;98904.34;4899471;29;8894;-81
2022/06/20 11:44:18;;;;;;;;;9.75;9.75;;;;;34.94;23.09;98892.47;4884871;29;9014;-81
2022/06/20 11:47:12;;;;;;;;;9.00;9.00;;;;;35.32;22.31;98892.69;4895241;29;8902;-81
2022/06/20 11:50:14;;;;;;;;;10.00;9.00;;;;;34.67;22.74;98880.13;4896103;29;8870;-82
2022/06/20 11:52:56;;;;;;;;;8.75;8.75;;;;;35.05;22.83;98877.66;4813073;29;8969;-82
2022/06/20 11:55:36;;;;;;;;;9.00;9.00;;;;;35.46;22.81;98878.38;4810914;29;8999;-84
2022/06/20 11:58:17;;;;;;;;;11.25;11.25;;;;;35.41;22.15;98875.38;4803172;29;8872;-80
2022/06/20 12:00:52;;;;;;;;;9.25;9.00;;;;;35.59;21.74;98874.25;4803506;29;8922;-78
2022/06/20 12:03:34;;;;;;;;;9.20;8.00;;;;;35.65;21.51;98871.69;4790196;29;8896;-80
2022/06/20 12:06:08;;;;;;;;;12.25;12.25;;;;;35.71;21.11;98876.41;4800894;29;9616;-80
2022/06/20 12:08:46;;;;;;;;;9.00;9.00;;;;;35.85;20.86;98876.66;4869416;29;8890;-79
2022/06/20 12:11:34;;;;;;;;;8.75;8.75;;;;;36.64;20.89;98874.50;4908691;29;8989;-81
2022/06/20 12:14:12;;;;;;;;;10.50;10.50;;;;;37.19;20.47;98868.84;4905095;28;8846;-79
2022/06/20 12:16:52;;;;;;;;;11.00;11.00;;;;;36.49;20.70;98857.34;4931564;28;8904;-82
2022/06/20 12:25:23;;;;;;;;;12.25;11.00;;;;;38.14;19.88;98858.84;4988870;28;8854;-81
2022/06/20 12:27:52;;;;;;;;;9.50;9.25;;;;;38.78;18.89;98849.72;4999872;28;8858;-79
2022/06/20 12:30:21;;;;;;;;;12.50;11.50;;;;;38.69;19.00;98856.34;5022492;28;8858;-83
2022/06/20 12:32:55;;;;;;;;;14.75;13.75;;;;;39.43;18.77;98847.50;5031655;28;8842;-87
2022/06/20 12:35:32;;;;;;;;;9.00;9.00;;;;;40.37;17.89;98855.94;5042092;28;8861;-80
2022/06/20 12:38:12;;;;;;;;;7.25;7.00;;;;;41.16;16.65;98846.75;5060935;28;8946;-78
2022/06/20 12:40:48;;;;;;;;;8.00;8.00;;;;;41.82;16.35;98839.31;5044768;28;8880;-78
2022/06/20 12:43:27;;;;;;;;;9.50;9.25;;;;;42.07;15.25;98839.34;5043227;28;8875;-78
2022/06/20 12:46:25;;;;;;;;;7.00;7.00;;;;;42.28;15.18;98838.13;5041746;28;8832;-76
2022/06/20 12:49:13;;;;;;;;;8.50;8.50;;;;;42.68;15.25;98836.94;4963290;28;8853;-83
2022/06/20 12:51:53;;;;;;;;;9.75;9.75;;;;;42.87;14.55;98827.63;5016098;28;8875;-87
2022/06/20 12:54:47;;;;;;;;;7.75;7.75;;;;;43.16;14.81;98833.44;5010996;28;9742;-75
2022/06/20 12:57:44;;;;;;;;;13.25;13.25;;;;;43.29;14.26;98818.69;4949732;28;8859;-80
2022/06/20 13:00:26;;;;;;;;;10.00;10.00;;;;;43.90;14.32;98819.56;4916844;28;9055;-81
2022/06/20 13:03:35;;;;;;;;;8.75;8.00;;;;;44.50;13.02;98810.34;4948527;28;8996;-80
2022/06/20 13:06:37;;;;;;;;;6.75;6.75;;;;;44.19;13.60;98804.09;4871971;29;9092;-78
2022/06/20 13:09:31;;;;;;;;;10.25;10.25;;;;;44.04;13.54;98809.19;4871698;29;9723;-79
2022/06/20 13:12:13;;;;;;;;;8.00;8.00;;;;;44.51;13.04;98809.28;4871716;29;8913;-78
2022/06/20 13:15:27;;;;;;;;;9.75;9.75;;;;;42.99;13.76;98803.88;4873170;29;8883;-82
2022/06/20 13:18:08;;;;;;;;;8.00;8.00;;;;;43.33;13.79;98801.59;4863094;29;9616;-85